Time;durP1;ratioP1;P1;durP2;ratioP2;P2;SDS_P1;SDS_P2;PMS_P1;PMS_P2;Temp;Humidity;BMP_temperature;BMP_pressure;BME280_temperature;BME280_humidity;BME280_pressure;Samples;Min_cycle;Max_cycle;Signal;HPM_P1;HPM_P2
2021/03/16 00:01:18;;;;;;;8.18;5.13;;;;;;;3.58;94.83;98742.59;5021775;28;47114;-80
2021/03/16 00:03:43;;;;;;;7.63;4.95;;;;;;;3.44;95.86;98752.22;5039013;28;45470;-79
2021/03/16 00:06:09;;;;;;;7.53;5.07;;;;;;;3.39;97.37;98751.69;5039666;28;45359;-79
2021/03/16 00:08:35;;;;;;;9.50;5.13;;;;;;;3.33;97.56;98754.69;5039489;28;45374;-79
2021/03/16 00:11:00;;;;;;;8.80;4.80;;;;;;;3.35;96.50;98752.81;5039446;28;46400;-79
2021/03/16 00:13:25;;;;;;;6.43;4.20;;;;;;;3.38;96.27;98759.66;5039347;28;45484;-79
2021/03/16 00:15:51;;;;;;;9.38;5.07;;;;;;;3.30;96.55;98757.53;5039182;28;45405;-80
2021/03/16 00:18:17;;;;;;;7.93;4.35;;;;;;;3.36;96.10;98765.00;5021087;28;45480;-79
2021/03/16 00:20:43;;;;;;;5.47;3.42;;;;;;;3.28;96.80;98762.88;5039158;28;45273;-79
2021/03/16 00:23:09;;;;;;;7.20;4.03;;;;;;;3.31;95.38;98761.84;5039148;28;45447;-79
2021/03/16 00:25:35;;;;;;;6.47;4.07;;;;;;;3.44;96.06;98765.38;5038997;28;45232;-79
2021/03/16 00:28:01;;;;;;;7.90;4.60;;;;;;;3.53;96.27;98763.09;5039342;28;45473;-79
2021/03/16 00:30:27;;;;;;;7.82;5.25;;;;;;;3.57;95.89;98768.06;5039111;28;45930;-79
2021/03/16 00:32:52;;;;;;;6.82;4.32;;;;;;;3.64;95.87;98768.50;5038839;28;45270;-80
2021/03/16 00:35:18;;;;;;;6.90;4.30;;;;;;;3.48;96.08;98774.75;5032357;28;45313;-79
2021/03/16 00:37:43;;;;;;;6.30;4.18;;;;;;;3.45;95.82;98764.44;5032814;28;45364;-80
2021/03/16 00:40:10;;;;;;;6.80;4.40;;;;;;;3.48;95.72;98772.13;5037273;28;45303;-79
2021/03/16 00:42:35;;;;;;;5.88;3.92;;;;;;;3.33;96.61;98771.31;5020795;28;45807;-79
2021/03/16 00:45:01;;;;;;;7.53;4.40;;;;;;;3.25;97.33;98775.38;5038841;28;45346;-79
2021/03/16 00:47:26;;;;;;;10.52;4.97;;;;;;;3.21;97.23;98777.34;5038412;28;45202;-79
2021/03/16 00:49:52;;;;;;;7.40;4.60;;;;;;;3.16;97.99;98772.38;5021012;28;48187;-79
2021/03/16 00:52:17;;;;;;;7.93;4.85;;;;;;;3.16;97.89;98776.78;5038847;28;45289;-79
2021/03/16 00:54:43;;;;;;;7.72;5.13;;;;;;;3.18;97.51;98777.53;5021081;28;45253;-79
2021/03/16 00:57:08;;;;;;;7.68;4.72;;;;;;;3.23;96.38;98785.13;5038862;28;45495;-79
2021/03/16 00:59:34;;;;;;;6.93;4.75;;;;;;;3.26;96.22;98777.06;5038769;28;45982;-79
2021/03/16 01:01:59;;;;;;;6.97;4.75;;;;;;;3.23;96.09;98782.50;5038151;28;45400;-79
2021/03/16 01:04:25;;;;;;;6.15;4.25;;;;;;;3.21;95.96;98783.44;5020991;28;45229;-79
2021/03/16 01:06:50;;;;;;;8.65;4.30;;;;;;;3.15;95.75;98789.09;5038549;28;45226;-79
2021/03/16 01:09:16;;;;;;;7.05;4.90;;;;;;;3.12;96.73;98796.31;5038451;28;46014;-79
2021/03/16 01:11:41;;;;;;;6.82;4.57;;;;;;;3.11;96.03;98800.75;5020439;28;45895;-79
2021/03/16 01:14:08;;;;;;;7.70;4.70;;;;;;;3.14;95.54;98800.56;5037612;28;45517;-79
2021/03/16 01:16:33;;;;;;;6.97;4.25;;;;;;;3.15;95.11;98793.50;5037748;28;45368;-79
2021/03/16 01:18:59;;;;;;;8.45;5.03;;;;;;;3.17;95.36;98787.22;5038153;28;45443;-79
2021/03/16 01:21:25;;;;;;;7.70;4.72;;;;;;;3.19;94.68;98781.84;5038239;28;45427;-79
2021/03/16 01:23:50;;;;;;;7.78;4.68;;;;;;;3.19;94.56;98792.34;5038578;28;45328;-79
2021/03/16 01:26:16;;;;;;;7.38;4.68;;;;;;;3.12;95.43;98788.44;5038314;28;45354;-79
2021/03/16 01:28:41;;;;;;;6.32;4.30;;;;;;;3.10;95.40;98785.91;5020253;28;47042;-79
2021/03/16 01:31:07;;;;;;;7.10;4.00;;;;;;;3.15;95.42;98788.22;5038127;28;45297;-79
2021/03/16 01:33:32;;;;;;;6.22;4.22;;;;;;;3.21;94.35;98785.22;5037620;28;45314;-79
2021/03/16 01:35:58;;;;;;;6.85;4.28;;;;;;;3.13;94.07;98790.13;5016857;28;45661;-79
2021/03/16 01:38:23;;;;;;;6.18;4.43;;;;;;;3.12;94.77;98789.28;5037046;28;46290;-80
2021/03/16 01:40:48;;;;;;;7.35;4.70;;;;;;;3.11;95.78;98790.22;5036103;28;45263;-80
2021/03/16 01:43:20;;;;;;;6.78;4.78;;;;;;;3.06;96.02;98800.16;5037961;28;45521;-80
2021/03/16 01:45:47;;;;;;;8.05;5.63;;;;;;;3.06;95.83;98802.78;5037864;28;45429;-79
2021/03/16 01:48:16;;;;;;;8.52;5.45;;;;;;;3.09;95.45;98801.75;5039716;28;47120;-79
2021/03/16 01:50:41;;;;;;;9.23;6.22;;;;;;;3.04;96.41;98792.38;5037766;28;45173;-79
2021/03/16 01:53:08;;;;;;;9.95;6.15;;;;;;;3.08;96.65;98793.00;5038036;28;45339;-79
2021/03/16 01:55:35;;;;;;;10.23;6.15;;;;;;;2.96;96.88;98791.16;5037769;28;45439;-80
2021/03/16 01:58:00;;;;;;;8.57;6.00;;;;;;;2.96;97.04;98797.25;5037988;28;46032;-79
2021/03/16 02:00:30;;;;;;;8.50;5.43;;;;;;;2.90;96.42;98797.66;5037778;28;45324;-80
2021/03/16 02:02:56;;;;;;;8.70;6.05;;;;;;;2.94;96.16;98793.88;5037636;28;45437;-79
2021/03/16 02:05:22;;;;;;;10.30;6.20;;;;;;;2.91;96.27;98802.78;5037682;28;45293;-79
2021/03/16 02:08:06;;;;;;;9.85;6.10;;;;;;;2.88;96.78;98797.72;5036352;28;46853;-79
2021/03/16 02:10:40;;;;;;;9.63;6.05;;;;;;;2.83;97.08;98794.53;5037426;28;45229;-79
2021/03/16 02:13:25;;;;;;;8.98;6.15;;;;;;;2.83;96.82;98793.69;5037704;28;45426;-79
2021/03/16 02:15:58;;;;;;;9.32;6.95;;;;;;;2.81;97.00;98800.84;5027763;28;45466;-79
2021/03/16 02:18:27;;;;;;;9.43;6.18;;;;;;;2.76;96.28;98790.59;5037082;28;46111;-79
2021/03/16 02:20:55;;;;;;;10.57;6.75;;;;;;;2.66;96.66;98794.72;5037625;28;45479;-79
2021/03/16 02:23:33;;;;;;;10.77;7.20;;;;;;;2.63;97.50;98791.34;5036971;28;45318;-79
2021/03/16 02:26:37;;;;;;;13.63;7.57;;;;;;;2.61;97.95;98794.97;5037480;28;45300;-79
2021/03/16 02:29:09;;;;;;;11.27;6.65;;;;;;;2.65;97.38;98798.28;5008906;28;45548;-79
2021/03/16 02:31:38;;;;;;;11.57;7.22;;;;;;;2.66;97.12;98795.56;5037092;28;45457;-79
2021/03/16 02:34:05;;;;;;;10.40;6.78;;;;;;;2.70;96.73;98789.19;5037614;28;45333;-79
2021/03/16 02:36:32;;;;;;;9.85;6.70;;;;;;;2.74;96.67;98788.06;5023472;28;46729;-79
2021/03/16 02:39:01;;;;;;;17.50;10.07;;;;;;;2.74;97.14;98793.31;5037155;28;46334;-79
2021/03/16 02:41:28;;;;;;;13.88;9.00;;;;;;;2.70;97.17;98790.97;5034800;28;45388;-79
2021/03/16 02:43:53;;;;;;;13.20;7.93;;;;;;;2.80;97.05;98789.47;5037546;28;45337;-80
2021/03/16 02:46:20;;;;;;;11.38;7.07;;;;;;;2.65;96.56;98791.25;5022819;28;45463;-80
2021/03/16 02:48:47;;;;;;;10.88;7.13;;;;;;;2.57;96.72;98799.59;5040467;28;45246;-80
2021/03/16 02:51:14;;;;;;;11.77;7.50;;;;;;;2.53;96.82;98786.72;5040547;28;45515;-80
2021/03/16 02:53:40;;;;;;;11.88;8.00;;;;;;;2.61;97.16;98794.97;5022701;28;45277;-80
2021/03/16 02:56:07;;;;;;;11.77;7.72;;;;;;;2.61;96.81;98801.09;5040291;28;45478;-80
2021/03/16 02:58:35;;;;;;;12.93;8.15;;;;;;;2.73;97.21;98807.41;5040668;28;45290;-80
2021/03/16 03:01:01;;;;;;;14.85;9.02;;;;;;;2.80;96.70;98802.59;5022133;28;45523;-80
2021/03/16 03:03:29;;;;;;;15.20;8.88;;;;;;;2.88;96.80;98800.34;5040220;28;45245;-80
2021/03/16 03:05:56;;;;;;;11.45;6.88;;;;;;;2.95;96.21;98803.47;5040522;28;45336;-80
2021/03/16 03:08:23;;;;;;;10.68;7.35;;;;;;;2.76;95.66;98795.84;5040494;28;45399;-80
2021/03/16 03:10:49;;;;;;;13.23;8.23;;;;;;;2.62;96.33;98808.03;5040529;28;45281;-79
2021/03/16 03:13:14;;;;;;;13.45;7.20;;;;;;;2.61;96.65;98802.84;5040430;28;45470;-80
2021/03/16 03:15:40;;;;;;;12.85;7.93;;;;;;;2.67;96.39;98802.53;5022771;28;45620;-79
2021/03/16 03:18:05;;;;;;;10.98;6.95;;;;;;;2.68;96.26;98811.22;5040004;28;45337;-79
2021/03/16 03:20:34;;;;;;;11.55;7.22;;;;;;;2.68;96.56;98811.22;5040644;28;45302;-80
2021/03/16 03:23:14;;;;;;;11.40;7.63;;;;;;;2.81;97.02;98813.97;5038978;28;45333;-80
2021/03/16 03:25:44;;;;;;;12.15;7.55;;;;;;;2.82;96.67;98819.13;5021608;28;45537;-80
2021/03/16 03:28:19;;;;;;;11.67;7.57;;;;;;;2.89;96.62;98814.34;5019067;28;47811;-80
2021/03/16 03:30:46;;;;;;;11.25;7.28;;;;;;;3.17;95.77;98808.25;5039997;28;45415;-79
2021/03/16 03:33:12;;;;;;;11.77;7.30;;;;;;;3.10;95.88;98812.19;5039896;28;45651;-79
2021/03/16 03:35:38;;;;;;;10.88;6.78;;;;;;;2.85;95.38;98818.94;5022154;28;45268;-79
2021/03/16 03:38:05;;;;;;;11.52;7.28;;;;;;;2.88;95.70;98817.91;5039922;28;45923;-79
2021/03/16 03:40:32;;;;;;;11.35;7.47;;;;;;;2.91;95.01;98815.91;5021799;28;45452;-80
2021/03/16 03:43:01;;;;;;;9.98;6.97;;;;;;;2.77;96.11;98821.19;5021869;28;45539;-79
2021/03/16 03:45:28;;;;;;;12.80;7.38;;;;;;;2.74;95.86;98821.38;5040138;28;45246;-80
2021/03/16 03:47:57;;;;;;;12.77;7.25;;;;;;;2.74;95.84;98814.34;5039450;28;46351;-80
2021/03/16 03:50:23;;;;;;;10.90;6.75;;;;;;;2.68;96.49;98824.34;5039873;28;45339;-80
2021/03/16 03:52:50;;;;;;;13.10;7.47;;;;;;;2.73;96.20;98827.56;5039804;28;45407;-80
2021/03/16 03:55:17;;;;;;;11.38;7.32;;;;;;;2.69;96.19;98824.28;5038956;28;45537;-80
2021/03/16 03:57:43;;;;;;;10.70;6.65;;;;;;;2.63;96.33;98829.88;5037625;28;47382;-79
2021/03/16 04:00:14;;;;;;;10.15;6.63;;;;;;;2.56;96.09;98829.41;5021851;28;45245;-79
2021/03/16 04:02:41;;;;;;;12.40;7.65;;;;;;;2.60;96.15;98825.66;5036566;28;45504;-79
2021/03/16 04:05:16;;;;;;;9.65;6.38;;;;;;;2.62;95.39;98829.03;5039616;28;45246;-79
2021/03/16 04:07:43;;;;;;;11.63;6.82;;;;;;;2.62;95.31;98836.91;5032058;28;46213;-79
2021/03/16 04:10:11;;;;;;;11.32;6.78;;;;;;;2.56;94.92;98841.69;5021372;28;45437;-79
2021/03/16 04:12:38;;;;;;;11.73;6.93;;;;;;;2.69;94.81;98844.44;5039376;28;45344;-79
2021/03/16 04:15:07;;;;;;;10.68;7.00;;;;;;;2.63;95.36;98843.00;5039398;28;45587;-79
2021/03/16 04:17:34;;;;;;;12.70;7.03;;;;;;;2.58;95.18;98855.56;5026595;28;46460;-79
2021/03/16 04:19:59;;;;;;;10.68;6.85;;;;;;;2.69;94.68;98853.19;5038863;28;45313;-79
2021/03/16 04:22:25;;;;;;;9.75;6.13;;;;;;;2.75;94.57;98851.94;5039669;28;45205;-80
2021/03/16 04:24:53;;;;;;;11.88;7.25;;;;;;;2.68;94.23;98858.50;5039246;28;45544;-79
2021/03/16 04:27:19;;;;;;;13.38;7.38;;;;;;;2.72;95.29;98858.25;5021339;28;47112;-79
2021/03/16 04:29:44;;;;;;;9.52;6.45;;;;;;;2.81;93.53;98848.94;5038985;28;45387;-79
2021/03/16 04:32:10;;;;;;;10.98;7.43;;;;;;;2.85;94.10;98850.44;5039312;28;45491;-79
2021/03/16 04:34:35;;;;;;;12.35;8.30;;;;;;;2.91;94.77;98854.50;5019977;28;45649;-79
2021/03/16 04:37:01;;;;;;;12.60;7.72;;;;;;;2.85;94.96;98853.09;5025634;28;48007;-79
2021/03/16 04:39:26;;;;;;;10.05;7.13;;;;;;;2.76;94.49;98864.13;5036839;28;45289;-79
2021/03/16 04:41:52;;;;;;;12.55;7.47;;;;;;;2.61;95.80;98869.38;5039079;28;45414;-79
2021/03/16 04:44:17;;;;;;;10.77;6.70;;;;;;;2.67;95.73;98872.56;5037656;28;45485;-79
2021/03/16 04:46:42;;;;;;;8.63;5.78;;;;;;;2.69;95.02;98876.81;5038863;28;45242;-79
2021/03/16 04:49:08;;;;;;;13.57;7.10;;;;;;;2.76;95.68;98869.41;5038976;28;45246;-79
2021/03/16 04:51:33;;;;;;;11.80;7.15;;;;;;;2.90;94.29;98882.56;5020486;28;45278;-79
2021/03/16 04:53:58;;;;;;;13.00;6.85;;;;;;;2.84;95.67;98882.91;5038477;28;45392;-79
2021/03/16 04:56:24;;;;;;;11.35;7.32;;;;;;;2.73;95.45;98880.94;5020851;28;48480;-79
2021/03/16 04:58:49;;;;;;;11.20;6.78;;;;;;;2.70;94.80;98882.91;5038708;28;45275;-79
2021/03/16 05:01:16;;;;;;;11.68;6.53;;;;;;;2.71;96.20;98887.22;5038841;28;45425;-79
2021/03/16 05:03:41;;;;;;;10.50;6.88;;;;;;;2.75;95.99;98888.72;5038188;28;45455;-79
2021/03/16 05:06:07;;;;;;;12.13;7.60;;;;;;;2.84;95.90;98889.97;5020349;28;47255;-79
2021/03/16 05:08:32;;;;;;;10.45;7.25;;;;;;;2.85;94.75;98884.59;5037943;28;45376;-79
2021/03/16 05:10:58;;;;;;;11.23;7.07;;;;;;;2.95;94.53;98892.78;5038718;28;45343;-79
2021/03/16 05:13:23;;;;;;;10.55;6.93;;;;;;;2.96;94.47;98894.50;5038369;28;45277;-79
2021/03/16 05:15:48;;;;;;;10.43;5.90;;;;;;;2.96;93.90;98893.63;5038600;28;45356;-79
2021/03/16 05:18:14;;;;;;;10.60;6.10;;;;;;;2.90;95.02;98898.31;5020181;28;45368;-79
2021/03/16 05:20:40;;;;;;;10.63;6.18;;;;;;;2.83;94.59;98910.13;5020379;28;45443;-79
2021/03/16 05:23:05;;;;;;;10.63;6.65;;;;;;;2.84;93.58;98919.69;5038424;28;45299;-79
2021/03/16 05:25:31;;;;;;;9.57;6.03;;;;;;;2.83;93.01;98922.44;5038285;28;46069;-79
2021/03/16 05:27:57;;;;;;;8.40;5.57;;;;;;;2.94;93.28;98924.41;5020144;28;45383;-79
2021/03/16 05:30:23;;;;;;;10.00;6.03;;;;;;;2.88;92.76;98920.38;5038320;28;45361;-79
2021/03/16 05:32:58;;;;;;;12.35;6.80;;;;;;;2.83;94.51;98930.31;5019551;28;45550;-79
2021/03/16 05:35:25;;;;;;;16.33;9.85;;;;;;;2.77;93.64;98929.75;5030331;28;46293;-79
2021/03/16 05:37:51;;;;;;;15.02;11.13;;;;;;;2.82;92.76;98934.72;5031527;28;45339;-79
2021/03/16 05:40:17;;;;;;;14.40;9.20;;;;;;;2.69;94.17;98931.97;5036002;28;45326;-79
2021/03/16 05:42:42;;;;;;;12.63;8.70;;;;;;;2.71;93.39;98931.88;5037903;28;45632;-79
2021/03/16 05:45:09;;;;;;;11.95;6.22;;;;;;;2.68;92.04;98927.66;5038004;28;45447;-79
2021/03/16 05:47:37;;;;;;;10.88;7.20;;;;;;;2.90;91.33;98936.91;5037624;28;45319;-79
2021/03/16 05:50:03;;;;;;;13.07;8.23;;;;;;;2.85;91.53;98934.53;5037862;28;45298;-79
2021/03/16 05:52:29;;;;;;;10.85;7.13;;;;;;;2.76;92.56;98937.69;5036202;28;45423;-79
2021/03/16 05:54:55;;;;;;;13.45;7.55;;;;;;;2.73;94.21;98948.38;5018814;28;47065;-78
2021/03/16 05:57:21;;;;;;;9.68;6.10;;;;;;;2.62;93.65;98947.22;5037438;28;45471;-79
2021/03/16 05:59:48;;;;;;;9.73;4.60;;;;;;;2.66;93.02;98950.53;5019576;28;45458;-79
2021/03/16 06:02:15;;;;;;;6.03;3.80;;;;;;;2.59;90.73;98955.28;5035864;28;45446;-79
2021/03/16 06:04:44;;;;;;;8.57;4.15;;;;;;;2.67;92.06;98954.84;5033878;28;46315;-79
2021/03/16 06:07:14;;;;;;;6.65;4.18;;;;;;;2.67;91.03;98957.47;5024580;28;45473;-80
2021/03/16 06:09:40;;;;;;;9.57;4.05;;;;;;;2.71;92.24;98963.38;5036874;28;45420;-81
2021/03/16 06:12:06;;;;;;;7.85;4.63;;;;;;;2.80;91.82;98972.53;5036506;28;45351;-80
2021/03/16 06:14:32;;;;;;;8.63;4.95;;;;;;;2.73;93.75;98969.41;5037038;28;45297;-80
2021/03/16 06:16:59;;;;;;;9.52;4.30;;;;;;;2.70;91.48;98969.56;5018262;28;45444;-79
2021/03/16 06:19:38;;;;;;;8.48;3.83;;;;;;;2.78;90.68;98959.47;5019014;28;45258;-79
2021/03/16 06:22:05;;;;;;;6.35;4.20;;;;;;;2.87;91.36;98953.69;5017557;28;45673;-80
2021/03/16 06:24:31;;;;;;;6.72;4.47;;;;;;;2.87;91.63;98979.13;5017626;28;47110;-81
2021/03/16 06:26:57;;;;;;;10.70;7.32;;;;;;;2.98;91.18;98970.59;5018785;28;45814;-81
2021/03/16 06:29:24;;;;;;;11.80;7.35;;;;;;;3.00;91.12;98973.97;5018496;28;45286;-80
2021/03/16 06:31:50;;;;;;;11.63;7.75;;;;;;;2.99;91.56;98967.88;5036242;28;45420;-80
2021/03/16 06:34:21;;;;;;;7.47;5.07;;;;;;;2.85;89.97;98981.81;5035822;28;45686;-82
2021/03/16 06:36:56;;;;;;;11.50;5.68;;;;;;;3.03;90.50;98979.91;5051157;28;45305;-79
2021/03/16 06:39:21;;;;;;;8.25;5.30;;;;;;;2.91;91.06;98994.59;5015991;28;45656;-80
2021/03/16 06:41:47;;;;;;;10.90;6.63;;;;;;;3.04;90.27;98986.84;5029896;28;45483;-81
2021/03/16 06:44:17;;;;;;;15.27;10.48;;;;;;;3.02;91.58;98982.59;5018251;28;47096;-80
2021/03/16 06:46:43;;;;;;;9.95;7.00;;;;;;;3.01;90.47;98988.81;5036137;28;45409;-82
2021/03/16 06:49:27;;;;;;;10.90;5.90;;;;;;;3.09;90.29;98993.63;5036670;28;45427;-80
2021/03/16 06:51:56;;;;;;;8.27;5.13;;;;;;;3.00;90.82;99000.25;5018333;28;45500;-80
2021/03/16 06:54:26;;;;;;;8.70;4.63;;;;;;;3.05;90.58;99006.09;5034491;28;47899;-80
2021/03/16 06:57:00;;;;;;;6.53;3.53;;;;;;;3.31;87.88;99008.97;5035153;28;45432;-79
2021/03/16 06:59:28;;;;;;;5.53;3.35;;;;;;;3.27;88.38;99013.56;5036629;28;45390;-79
2021/03/16 07:01:54;;;;;;;6.20;3.25;;;;;;;3.39;88.43;99009.38;5022829;28;45384;-78
2021/03/16 07:04:21;;;;;;;7.25;4.22;;;;;;;3.52;87.75;99013.88;5035000;28;46907;-79
2021/03/16 07:06:48;;;;;;;6.55;3.42;;;;;;;3.40;88.38;99018.94;5035522;28;45487;-79
2021/03/16 07:09:15;;;;;;;8.43;4.53;;;;;;;3.38;88.84;99014.69;5035968;28;45316;-79
2021/03/16 07:11:48;;;;;;;9.85;5.07;;;;;;;3.61;87.42;99018.59;5036026;28;45623;-79
2021/03/16 07:14:17;;;;;;;7.85;3.55;;;;;;;3.72;87.41;99026.66;5036272;28;46062;-79
2021/03/16 07:16:44;;;;;;;9.85;6.25;;;;;;;3.54;87.20;99020.75;5036092;28;45357;-79
2021/03/16 07:19:10;;;;;;;11.02;7.53;;;;;;;3.59;87.10;99025.72;5036302;28;45339;-79
2021/03/16 07:21:47;;;;;;;10.27;6.50;;;;;;;3.71;87.91;99032.03;5036304;28;45443;-80
2021/03/16 07:24:16;;;;;;;8.73;6.18;;;;;;;3.91;83.30;99041.31;5036035;28;46132;-79
2021/03/16 07:26:43;;;;;;;9.15;6.40;;;;;;;4.03;83.32;99037.09;5035959;28;45230;-79
2021/03/16 07:29:09;;;;;;;14.50;9.82;;;;;;;4.06;82.87;99048.31;5036352;28;45481;-79
2021/03/16 07:31:40;;;;;;;11.23;6.50;;;;;;;4.02;83.40;99045.94;5038518;28;45476;-79
2021/03/16 07:34:08;;;;;;;11.43;7.60;;;;;;;4.25;81.10;99055.06;5039651;28;45258;-80
2021/03/16 07:36:35;;;;;;;11.60;7.78;;;;;;;4.29;84.21;99047.78;5054682;28;45442;-79
2021/03/16 07:39:03;;;;;;;6.70;4.18;;;;;;;4.59;77.23;99057.34;5021423;28;45502;-79
2021/03/16 07:41:29;;;;;;;6.28;3.55;;;;;;;4.68;77.91;99056.75;5021281;28;45652;-79
2021/03/16 07:44:06;;;;;;;6.47;3.75;;;;;;;4.77;76.84;99055.28;5039204;28;46246;-79
2021/03/16 07:46:53;;;;;;;7.47;3.80;;;;;;;4.71;78.13;99061.81;5039014;28;45245;-79
2021/03/16 07:49:36;;;;;;;6.05;2.28;;;;;;;4.86;77.11;99073.19;5039362;28;45265;-79
2021/03/16 07:52:03;;;;;;;4.25;2.20;;;;;;;4.91;74.02;99063.19;5039482;28;45570;-80
2021/03/16 07:54:37;;;;;;;6.25;4.22;;;;;;;4.88;68.54;99075.69;5038747;28;46159;-79
2021/03/16 07:57:03;;;;;;;8.57;2.80;;;;;;;5.05;68.30;99077.25;5039166;28;45428;-79
2021/03/16 07:59:31;;;;;;;5.35;2.70;;;;;;;5.15;66.36;99075.69;5039217;28;45323;-79
2021/03/16 08:01:57;;;;;;;4.32;2.40;;;;;;;5.33;66.11;99078.91;5038748;28;45355;-79
2021/03/16 08:04:39;;;;;;;4.22;2.17;;;;;;;5.40;66.19;99081.97;5039001;28;46010;-79
2021/03/16 08:07:06;;;;;;;4.63;2.50;;;;;;;5.48;63.93;99084.94;5021022;28;46091;-79
2021/03/16 08:09:43;;;;;;;4.13;2.42;;;;;;;5.78;65.19;99081.19;5038763;28;45319;-79
2021/03/16 08:12:19;;;;;;;6.22;2.40;;;;;;;5.69;63.15;99076.50;5038931;28;45542;-79
2021/03/16 08:14:44;;;;;;;3.83;2.45;;;;;;;5.67;68.32;99079.25;5026952;28;45946;-79
2021/03/16 08:17:10;;;;;;;4.47;2.45;;;;;;;5.37;68.75;99083.03;5038682;28;45427;-79
2021/03/16 08:19:38;;;;;;;4.53;2.35;;;;;;;5.41;70.65;99078.38;5039115;28;45249;-79
2021/03/16 08:22:03;;;;;;;3.88;2.60;;;;;;;5.45;72.47;99082.50;5021038;28;45451;-79
2021/03/16 08:24:40;;;;;;;5.25;3.25;;;;;;;5.13;73.03;99079.34;5019777;28;47968;-80
2021/03/16 08:27:13;;;;;;;4.60;2.90;;;;;;;5.03;75.05;99084.41;5020629;28;45454;-81
2021/03/16 08:29:50;;;;;;;4.32;2.13;;;;;;;4.89;64.59;99078.25;5054269;28;45312;-79
2021/03/16 08:32:18;;;;;;;4.03;2.20;;;;;;;4.91;67.93;99081.63;5038046;28;45312;-79
2021/03/16 08:34:44;;;;;;;3.78;2.40;;;;;;;5.00;64.98;99082.81;5038566;28;46020;-79
2021/03/16 08:37:25;;;;;;;4.85;2.40;;;;;;;4.93;66.63;99084.16;5037343;28;45335;-79
2021/03/16 08:39:51;;;;;;;6.07;2.20;;;;;;;4.95;65.74;99090.16;5012128;28;45388;-80
2021/03/16 08:42:22;;;;;;;5.47;2.35;;;;;;;5.04;66.74;99097.47;5038142;28;45415;-79
2021/03/16 08:44:49;;;;;;;5.95;2.72;;;;;;;5.15;65.19;99088.88;5019884;28;48183;-80
2021/03/16 08:47:20;;;;;;;4.55;2.88;;;;;;;5.24;65.14;99085.63;5037550;28;45317;-80
2021/03/16 08:49:48;;;;;;;3.80;2.90;;;;;;;5.38;68.54;99090.00;5020584;28;45657;-82
2021/03/16 08:52:18;;;;;;;5.50;2.30;;;;;;;5.37;63.55;99093.56;5038432;28;45723;-83
2021/03/16 08:54:44;;;;;;;4.50;2.60;;;;;;;5.40;66.20;99095.16;5037955;28;45893;-79
2021/03/16 08:57:10;;;;;;;8.57;3.10;;;;;;;5.34;72.07;99092.94;5020305;28;45645;-79
2021/03/16 08:59:37;;;;;;;8.15;3.50;;;;;;;5.44;65.61;99095.81;5038213;28;45383;-79
2021/03/16 09:02:03;;;;;;;10.32;4.43;;;;;;;5.82;68.71;99095.84;5037730;28;45333;-82
2021/03/16 09:04:28;;;;;;;7.25;3.42;;;;;;;6.23;63.98;99091.34;5038497;28;46097;-79
2021/03/16 09:06:54;;;;;;;6.63;3.33;;;;;;;7.06;64.17;99085.47;5019615;28;46097;-79
2021/03/16 09:09:27;;;;;;;5.38;3.28;;;;;;;8.37;64.24;99087.91;5038447;28;45371;-83
2021/03/16 09:11:54;;;;;;;4.82;2.35;;;;;;;9.78;54.66;99087.13;5037892;28;45381;-79
2021/03/16 09:14:22;;;;;;;5.50;2.85;;;;;;;10.77;49.43;99085.72;5037482;28;45965;-80
2021/03/16 09:16:53;;;;;;;3.67;2.00;;;;;;;11.48;49.69;99089.13;5019347;28;45639;-79
2021/03/16 09:19:26;;;;;;;4.50;2.13;;;;;;;11.87;48.86;99085.56;5038194;28;45436;-79
2021/03/16 09:21:57;;;;;;;5.38;2.97;;;;;;;11.75;45.12;99097.38;5020151;28;45629;-84
2021/03/16 09:24:26;;;;;;;3.65;2.08;;;;;;;11.77;45.43;99093.59;5037623;28;46146;-83
2021/03/16 09:26:56;;;;;;;2.97;1.77;;;;;;;12.20;44.29;99083.41;5018259;28;45513;-83
2021/03/16 09:29:25;;;;;;;3.85;1.70;;;;;;;11.92;45.34;99093.97;5020039;28;45512;-82
2021/03/16 09:31:51;;;;;;;3.03;1.90;;;;;;;12.00;43.24;99081.78;5024822;28;45263;-83
2021/03/16 09:34:17;;;;;;;4.13;1.80;;;;;;;11.85;44.87;99092.84;5037537;28;46388;-82
2021/03/16 09:36:42;;;;;;;4.28;1.80;;;;;;;12.38;46.37;99080.81;5037726;28;45351;-83
2021/03/16 09:39:09;;;;;;;4.57;2.15;;;;;;;12.24;44.81;99091.94;5037042;28;45395;-84
2021/03/16 09:41:34;;;;;;;3.78;2.30;;;;;;;12.39;46.69;99090.50;5031156;28;45415;-84
2021/03/16 09:44:00;;;;;;;4.38;2.08;;;;;;;12.11;45.21;99089.63;5019325;28;47120;-83
2021/03/16 09:46:25;;;;;;;4.75;1.95;;;;;;;11.94;46.55;99099.16;5037230;28;45391;-84
2021/03/16 09:48:55;;;;;;;2.72;1.88;;;;;;;9.90;52.37;99097.66;5037737;28;45363;-83
2021/03/16 09:51:23;;;;;;;3.43;1.90;;;;;;;8.58;52.39;99103.94;5019735;28;45289;-83
2021/03/16 09:53:54;;;;;;;3.22;1.83;;;;;;;9.24;53.45;99099.56;5036609;28;45343;-84
2021/03/16 09:56:26;;;;;;;3.65;1.92;;;;;;;8.42;51.79;99106.97;5019311;28;45400;-84
2021/03/16 09:58:52;;;;;;;3.03;1.70;;;;;;;7.76;53.59;99110.25;5019269;28;45387;-85
2021/03/16 10:01:21;;;;;;;4.22;2.13;;;;;;;7.63;54.96;99106.88;5035948;28;45324;-84
2021/03/16 10:04:00;;;;;;;4.90;2.17;;;;;;;7.60;54.10;99107.94;5018957;28;48315;-83
2021/03/16 10:06:41;;;;;;;3.90;2.00;;;;;;;7.67;55.54;99108.31;5030650;28;45566;-79
2021/03/16 10:09:13;;;;;;;;;;;;;;;7.62;55.86;99103.34;5031485;28;45741;-75
2021/03/16 10:11:39;;;;;;;4.93;2.72;;;;;;;7.40;53.71;99101.47;5036550;28;46547;-78
2021/03/16 10:14:04;;;;;;;3.97;2.35;;;;;;;7.49;57.59;99100.78;5036624;28;46066;-80
2021/03/16 10:16:31;;;;;;;3.30;1.50;;;;;;;7.21;56.85;99100.22;5036566;28;45452;-76
2021/03/16 10:18:56;;;;;;;4.55;2.08;;;;;;;7.17;56.79;99096.09;5035702;28;45353;-76
2021/03/16 10:21:33;;;;;;;4.55;2.10;;;;;;;8.16;54.82;99080.69;5037052;28;45443;-76
2021/03/16 10:24:01;;;;;;;4.28;2.25;;;;;;;7.53;55.20;99081.09;5036771;28;45435;-76
2021/03/16 10:26:27;;;;;;;4.90;1.85;;;;;;;7.40;54.82;99088.25;5036796;28;45411;-75
2021/03/16 10:28:53;;;;;;;7.53;4.50;;;;;;;7.33;55.16;99079.94;5037108;28;45368;-76
2021/03/16 10:31:21;;;;;;;3.15;1.95;;;;;;;8.20;55.42;99062.75;5036589;28;45383;-76
2021/03/16 10:33:52;;;;;;;3.53;1.95;;;;;;;8.51;54.57;99070.09;5036920;28;45436;-76
2021/03/16 10:36:17;;;;;;;;;;;;;;;8.43;52.19;99063.59;5037200;28;45396;-76
2021/03/16 10:38:46;;;;;;;5.07;1.90;;;;;;;7.77;49.91;99056.34;5036972;28;45492;-76
2021/03/16 10:41:12;;;;;;;3.72;2.20;;;;;;;7.83;52.86;99049.72;5032918;28;45555;-76
2021/03/16 10:43:38;;;;;;;3.63;1.75;;;;;;;8.45;50.33;99059.00;5036343;28;45351;-75
2021/03/16 10:46:03;;;;;;;3.20;1.30;;;;;;;9.14;51.61;99046.41;5018008;28;45543;-75
2021/03/16 10:48:29;;;;;;;3.35;1.80;;;;;;;9.48;50.96;99048.06;5036362;28;45340;-73
2021/03/16 10:50:54;;;;;;;2.45;1.30;;;;;;;9.22;48.71;99042.28;5035401;28;45624;-75
2021/03/16 10:53:20;;;;;;;3.80;1.75;;;;;;;9.15;51.48;99042.78;5036489;28;45420;-76
2021/03/16 10:55:45;;;;;;;3.50;1.70;;;;;;;8.83;51.74;99048.91;5036494;28;45373;-76
2021/03/16 10:58:11;;;;;;;3.65;2.13;;;;;;;9.20;49.74;99043.25;5036826;28;45557;-76
2021/03/16 11:00:36;;;;;;;4.30;2.78;;;;;;;9.48;49.14;99050.72;5036601;28;45347;-75
2021/03/16 11:03:03;;;;;;;5.75;3.13;;;;;;;9.42;48.72;99037.97;5035571;28;45912;-76
2021/03/16 11:05:28;;;;;;;2.75;1.67;;;;;;;9.18;49.70;99039.88;5037651;28;45352;-76
2021/03/16 11:07:54;;;;;;;2.50;1.55;;;;;;;8.79;49.56;99047.47;5022085;28;45335;-74
2021/03/16 11:10:19;;;;;;;2.05;1.50;;;;;;;8.23;50.74;99054.56;5040094;28;45156;-76
2021/03/16 11:12:45;;;;;;;3.13;1.50;;;;;;;7.93;46.99;99055.97;5039117;28;45236;-77
2021/03/16 11:15:10;;;;;;;5.28;1.80;;;;;;;7.92;49.65;99043.69;5022170;28;45426;-77
2021/03/16 11:17:36;;;;;;;4.13;1.70;;;;;;;8.22;49.69;99039.63;5039692;28;45465;-76
2021/03/16 11:20:03;;;;;;;3.17;1.50;;;;;;;8.61;47.99;99039.25;5040066;28;45336;-79
2021/03/16 11:22:28;;;;;;;3.15;1.60;;;;;;;8.66;49.11;99039.72;5039648;28;46531;-77
2021/03/16 11:24:54;;;;;;;4.38;1.70;;;;;;;8.84;48.15;99033.88;5039755;28;45427;-77
2021/03/16 11:27:19;;;;;;;3.53;1.60;;;;;;;9.26;48.71;99031.25;5039503;28;45421;-76
2021/03/16 11:29:45;;;;;;;3.55;1.90;;;;;;;9.72;48.24;99023.91;5039663;28;45418;-75
2021/03/16 11:32:10;;;;;;;3.67;1.77;;;;;;;9.76;48.60;99029.78;5020664;28;46792;-77
2021/03/16 11:34:36;;;;;;;4.90;1.50;;;;;;;9.53;45.86;99037.91;5021637;28;45504;-78
2021/03/16 11:37:02;;;;;;;3.22;1.52;;;;;;;9.50;46.55;99032.84;5039506;28;45359;-77
2021/03/16 11:39:27;;;;;;;7.80;1.63;;;;;;;9.18;46.73;99026.63;5033972;28;45420;-77
2021/03/16 11:41:53;;;;;;;3.65;1.58;;;;;;;9.49;49.18;99033.81;5039133;28;45366;-76